EGGP

Liverpool John Lennon  Airport

Liverpool, United Kingdom

EGGP 190220Z 01003KT 9999 BKN045 06/02 Q1022

Observed Flight Rules
Nov-19 @ 02:20 UTC (32 minutes ago)
 
Visual Flight Rules
Wind Visibility Clouds
10° at 3 knots 10,000+ meters
  • Broken at 4,500' AGL
Temperatures Readings
Current 6°C / 43°F
Dewpoint 2°C / 36°F
Humidity 76%
Altimeter 30.18" Hg
Pressure 1022 hPa
Elevation 26
Observed Flight Rules
Nov-19 @ 02:20 UTC
(32 minutes ago)
 
VFR
Wind Visibility
10° at 3 knots 10,000+ meters
Clouds
  • Broken at 4,500' AGL
Temperature Dewpoint
6°C / 43°F 2°C / 36°F
Humidity Altimeter Pressure
76% 30.18" Hg 1022 hPa